Perryville, Missouri
Current Conditions -  °F | °C
As of 9:55 AM on Friday 28 Nov 2014 (Local Time) from KSAR Reporting Station
Clear Clear  
Wind Chill: 25°   Ceiling: Unl
Heat Index: 34°   Visibility: 10mi
Dew Point: 28°   Wind: 14mph
Humidity: 79%   Direction: 170°S
Pressure: 30.25"   Gusts: 23mph
Location:  37.73°N, 89.86°W
Report Text: KSAR 281555Z AUTO 17012G20KT 10SM CLR 01/M02 A3025 RMK AO2 T00111022
Loading
Personal Weather Stations






























Interactive Weather Map New forecast layout! Learn more

10-Day Weather Forecast

Advertisements
Track Severe Weather on mobile